Time;durP1;ratioP1;P1;durP2;ratioP2;P2;SDS_P1;SDS_P2;PMS_P1;PMS_P2;Temp;Humidity;BMP_temperature;BMP_pressure;BME280_temperature;BME280_humidity;BME280_pressure;Samples;Min_cycle;Max_cycle;Signal;HPM_P1;HPM_P2
2022/02/10 00:36:10;;;;;;;4.57;2.37;;;;;;;-2.48;98.45;96255.66;4983786;28;20046;-72
2022/02/10 00:38:40;;;;;;;5.55;2.30;;;;;;;-2.47;97.86;96249.53;4988579;28;20042;-73
2022/02/10 00:41:06;;;;;;;5.25;1.90;;;;;;;-2.33;97.17;96246.25;4988403;28;20038;-73
2022/02/10 00:43:31;;;;;;;3.38;2.05;;;;;;;-2.38;96.62;96247.72;4989388;28;20101;-73
2022/02/10 00:45:57;;;;;;;3.65;2.08;;;;;;;-2.39;96.78;96256.44;4990220;28;20520;-73
2022/02/10 00:48:22;;;;;;;5.75;2.17;;;;;;;-2.46;97.20;96251.13;4991697;28;20046;-73
2022/02/10 00:50:50;;;;;;;5.75;2.00;;;;;;;-2.59;96.82;96248.31;4999250;28;20114;-74
2022/02/10 00:53:23;;;;;;;3.22;1.75;;;;;;;-2.54;96.91;96253.75;4993566;28;20519;-73
2022/02/10 00:55:49;;;;;;;4.53;1.80;;;;;;;-2.67;97.67;96252.53;4990898;28;20070;-73
2022/02/10 01:29:46;;;;;;;3.47;1.83;;;;;;;-2.64;97.05;96253.97;4994530;28;20041;-72
2022/02/10 01:32:12;;;;;;;3.90;1.98;;;;;;;-2.84;98.97;96254.34;4997627;28;20038;-73
2022/02/10 01:34:46;;;;;;;4.60;2.10;;;;;;;-2.74;97.69;96248.19;4991114;28;20389;-73
2022/02/10 01:37:12;;;;;;;3.05;1.73;;;;;;;-2.76;97.65;96252.72;4990851;28;20042;-72
2022/02/10 01:39:43;;;;;;;3.65;1.80;;;;;;;-2.80;97.89;96245.34;5001454;28;20455;-73
2022/02/10 02:03:48;;;;;;;4.72;1.85;;;;;;;-2.83;96.99;96224.25;4998862;28;20558;-73
2022/02/10 02:06:22;;;;;;;2.47;1.50;;;;;;;-2.82;97.10;96223.28;4997672;28;20046;-73
2022/02/10 02:08:47;;;;;;;3.40;1.70;;;;;;;-2.87;97.20;96225.56;4990930;28;20042;-73
2022/02/10 02:11:13;;;;;;;4.90;1.70;;;;;;;-2.89;96.86;96222.34;4996397;28;20046;-73
2022/02/10 02:13:39;;;;;;;3.28;1.67;;;;;;;-2.80;97.08;96213.63;4987974;28;20117;-73
2022/02/10 02:16:05;;;;;;;4.57;2.05;;;;;;;-2.90;97.31;96213.00;5002932;28;20045;-73
2022/02/10 02:18:31;;;;;;;5.25;1.70;;;;;;;-2.90;97.30;96208.66;5009802;28;20038;-73
2022/02/10 02:20:58;;;;;;;3.97;1.88;;;;;;;-2.93;97.10;96208.19;5002835;28;20046;-72
2022/02/10 02:23:25;;;;;;;5.25;1.88;;;;;;;-2.98;96.81;96195.81;5003342;28;20042;-73
2022/02/10 02:25:58;;;;;;;2.90;1.48;;;;;;;-3.02;96.92;96200.47;4996695;28;20052;-73
2022/02/10 02:28:24;;;;;;;4.82;1.50;;;;;;;-3.09;97.34;96199.53;5003330;28;20417;-73
2022/02/10 02:31:03;;;;;;;3.45;1.70;;;;;;;-3.11;98.01;96196.34;4990176;28;20046;-73
2022/02/10 03:08:51;;;;;;;2.80;1.50;;;;;;;-3.38;98.79;96154.59;4990008;28;20428;-72
2022/02/10 03:11:18;;;;;;;4.45;1.70;;;;;;;-3.50;100.00;96148.22;4989718;28;20046;-73
2022/02/10 03:14:05;;;;;;;5.03;1.90;;;;;;;-3.53;100.00;96157.06;4992204;28;20066;-73
2022/02/10 04:19:07;;;;;;;3.08;1.70;;;;;;;-3.36;97.76;96137.22;4984165;28;20062;-73
2022/02/10 04:22:28;;;;;;;2.15;1.25;;;;;;;-3.21;96.86;96139.09;4989122;28;20050;-72
2022/02/10 04:27:41;;;;;;;2.25;1.20;;;;;;;-3.10;95.88;96131.00;5000148;28;20084;-72
2022/02/10 04:30:23;;;;;;;2.50;1.35;;;;;;;-3.05;95.81;96136.44;4994907;28;20136;-73
2022/02/10 05:01:37;;;;;;;4.80;1.60;;;;;;;-3.38;96.85;96115.97;4991811;28;20100;-76
2022/02/10 05:04:22;;;;;;;2.63;1.63;;;;;;;-3.58;97.70;96120.72;4991696;28;20046;-76
2022/02/10 05:23:29;;;;;;;1.58;1.35;;;;;;;-3.80;99.08;96118.84;4968772;28;20051;-76
2022/02/10 05:32:02;;;;;;;4.57;1.60;;;;;;;-3.71;98.18;96108.38;4998268;28;20046;-77
2022/02/10 05:34:25;;;;;;;3.55;1.60;;;;;;;-3.47;96.91;96114.41;4992403;28;20050;-76
2022/02/10 05:36:52;;;;;;;2.17;1.48;;;;;;;-3.48;96.65;96110.22;4991068;28;20049;-77
2022/02/10 05:39:23;;;;;;;2.95;1.77;;;;;;;-3.53;97.27;96115.09;4998993;28;20042;-73
2022/02/10 05:47:08;;;;;;;3.78;1.65;;;;;;;-3.38;95.90;96122.91;4990672;28;20042;-73
2022/02/10 06:51:36;;;;;;;3.35;1.55;;;;;;;-3.16;94.52;96147.09;4996650;28;20066;-76
2022/02/10 06:54:17;;;;;;;7.70;1.70;;;;;;;-3.64;96.52;96151.47;4989319;28;20046;-75
2022/02/10 07:58:19;;;;;;;2.30;1.40;;;;;;;-0.31;82.76;96131.84;4990845;28;20065;-77
2022/02/10 08:59:04;;;;;;;4.43;1.80;;;;;;;4.76;61.41;96091.81;4981618;28;20047;-73
2022/02/10 09:22:12;;;;;;;9.07;2.90;;;;;;;4.97;63.33;96088.78;4986394;28;20043;-76
2022/02/10 10:02:10;;;;;;;5.97;2.40;;;;;;;9.78;49.23;96082.25;4986479;28;20046;-75
2022/02/10 10:04:42;;;;;;;8.23;2.65;;;;;;;11.13;46.91;96074.13;4990240;28;20046;-74
2022/02/10 10:07:46;;;;;;;6.32;2.42;;;;;;;11.86;44.04;96075.06;4988864;28;20050;-74
2022/02/10 10:13:29;;;;;;;5.38;2.42;;;;;;;13.18;41.43;96061.88;4976466;28;20460;-74
2022/02/10 10:16:07;;;;;;;8.27;3.00;;;;;;;13.25;42.06;96057.06;4988249;28;20042;-73
2022/02/10 10:18:58;;;;;;;9.10;2.88;;;;;;;13.73;41.08;96071.63;4996462;28;20495;-74
2022/02/10 10:21:37;;;;;;;6.22;2.42;;;;;;;13.47;40.54;96064.63;5003511;28;20073;-74
2022/02/10 10:24:29;;;;;;;4.35;2.50;;;;;;;13.91;40.10;96062.25;4990200;28;20043;-74
2022/02/10 10:52:03;;;;;;;6.85;2.70;;;;;;;15.05;37.89;96030.91;4990676;28;20181;-71
2022/02/10 10:57:26;;;;;;;5.88;2.45;;;;;;;15.84;36.43;96018.94;4986666;28;20075;-73
2022/02/10 11:59:39;;;;;;;10.75;2.90;;;;;;;18.41;29.97;95962.19;4990232;28;20046;-75
2022/02/10 12:30:18;;;;;;;5.88;2.45;;;;;;;12.94;37.23;95938.34;4989360;28;20051;-75
2022/02/10 14:16:09;;;;;;;10.60;3.40;;;;;;;11.71;47.33;95888.63;5002534;28;20047;-76
2022/02/10 14:18:35;;;;;;;11.45;3.28;;;;;;;11.71;47.96;95889.44;5001689;28;20100;-76
2022/02/10 14:21:18;;;;;;;8.57;3.20;;;;;;;11.58;48.04;95890.78;4995336;28;20484;-75
2022/02/10 14:26:26;;;;;;;8.60;3.58;;;;;;;11.71;47.92;95893.91;4989812;28;20092;-75
2022/02/10 14:28:51;;;;;;;10.05;3.83;;;;;;;11.53;49.04;95896.06;5001092;28;20045;-75
2022/02/10 14:31:20;;;;;;;9.63;3.83;;;;;;;11.55;48.31;95895.78;5004860;28;20034;-75
2022/02/10 14:33:46;;;;;;;9.52;3.97;;;;;;;11.44;49.25;95901.06;4989921;28;20140;-75
2022/02/10 14:36:26;;;;;;;8.50;3.13;;;;;;;11.53;48.35;95898.69;4988583;28;20088;-75
2022/02/10 16:11:57;;;;;;;9.80;3.72;;;;;;;9.34;54.54;95867.00;4990480;28;20050;-74
2022/02/10 16:19:18;;;;;;;8.23;3.90;;;;;;;9.27;54.35;95871.66;4985369;28;20053;-75
2022/02/10 16:21:56;;;;;;;15.13;4.60;;;;;;;9.35;53.97;95868.56;4988145;28;20049;-74
2022/02/10 16:24:30;;;;;;;15.93;4.38;;;;;;;9.11;55.04;95868.13;4988043;28;20053;-74
2022/02/10 16:27:00;;;;;;;11.10;4.13;;;;;;;9.15;54.36;95869.19;4991224;28;20038;-76
2022/02/10 16:29:29;;;;;;;9.40;4.05;;;;;;;9.31;53.72;95862.22;4983702;28;20054;-75
2022/02/10 16:31:55;;;;;;;10.73;3.70;;;;;;;9.17;54.88;95867.91;4999609;28;20404;-77
2022/02/10 16:34:21;;;;;;;10.68;3.70;;;;;;;9.08;54.98;95869.41;4994449;28;20039;-77
2022/02/10 16:36:48;;;;;;;8.65;3.90;;;;;;;9.00;55.36;95872.50;4991074;28;20050;-75
2022/02/10 16:39:15;;;;;;;7.68;3.72;;;;;;;8.96;55.30;95863.53;4991191;28;20118;-75
2022/02/10 16:41:42;;;;;;;11.20;4.20;;;;;;;9.00;55.04;95862.00;4996620;28;20129;-75
2022/02/10 16:44:08;;;;;;;9.70;4.15;;;;;;;8.74;56.44;95868.88;4986511;28;20045;-75
2022/02/10 16:46:33;;;;;;;9.02;3.63;;;;;;;8.67;56.53;95858.56;4991547;28;20054;-73
2022/02/10 16:48:59;;;;;;;11.48;4.20;;;;;;;8.72;55.93;95870.94;4993256;28;20096;-75
2022/02/10 16:51:26;;;;;;;11.55;3.85;;;;;;;8.53;56.91;95867.88;4999171;28;20499;-75
2022/02/10 16:53:58;;;;;;;9.85;3.90;;;;;;;8.55;56.71;95876.25;4999224;28;20065;-73
2022/02/10 16:56:33;;;;;;;11.68;3.95;;;;;;;8.37;57.33;95880.78;4991987;28;20049;-72
2022/02/10 17:04:33;;;;;;;10.70;4.03;;;;;;;8.41;57.41;95892.38;4996744;28;20040;-73
2022/02/10 17:20:42;;;;;;;13.00;4.30;;;;;;;8.28;57.41;95887.50;4990163;28;20170;-73
2022/02/10 17:28:34;;;;;;;10.90;4.68;;;;;;;8.13;57.95;95891.53;4994585;28;20066;-73
2022/02/10 17:36:26;;;;;;;11.93;5.10;;;;;;;7.77;60.02;95893.69;4984166;28;20137;-74
2022/02/10 17:44:56;;;;;;;11.15;4.60;;;;;;;7.44;61.04;95889.28;5010507;28;20113;-72
2022/02/10 17:54:28;;;;;;;13.98;5.20;;;;;;;7.36;62.42;95908.81;4995203;28;20058;-73
2022/02/10 17:56:53;;;;;;;14.68;5.05;;;;;;;7.33;62.99;95914.53;5001950;28;20060;-73
2022/02/10 17:59:23;;;;;;;10.32;4.63;;;;;;;7.34;62.70;95910.09;5002293;28;20507;-73
2022/02/10 18:01:50;;;;;;;16.02;5.22;;;;;;;7.26;62.45;95914.69;4998473;28;20038;-74
2022/02/10 18:04:17;;;;;;;12.45;5.38;;;;;;;7.35;62.95;95919.53;4996195;28;20053;-73
2022/02/10 18:06:46;;;;;;;14.15;5.32;;;;;;;7.48;62.61;95910.56;5004244;28;20047;-74
2022/02/10 18:17:07;;;;;;;12.30;6.22;;;;;;;7.11;68.58;95944.03;5004813;28;20057;-72
2022/02/10 18:19:45;;;;;;;13.98;6.32;;;;;;;6.86;69.65;95933.91;4988119;28;20576;-75
2022/02/10 18:30:12;;;;;;;17.50;6.95;;;;;;;6.53;72.81;95942.47;4992595;28;20042;-75
2022/02/10 19:10:04;;;;;;;21.48;8.20;;;;;;;5.82;80.06;95989.56;4996243;28;20030;-77
2022/02/10 19:12:40;;;;;;;16.80;7.25;;;;;;;5.92;80.34;95984.59;5006887;28;20054;-77
2022/02/10 19:15:13;;;;;;;19.15;7.50;;;;;;;6.00;79.93;95988.69;4986475;28;20038;-80
2022/02/10 19:17:39;;;;;;;20.50;8.20;;;;;;;5.52;80.76;95985.25;4990013;28;20504;-78
2022/02/10 19:20:05;;;;;;;29.05;9.50;;;;;;;5.64;79.92;95983.44;4988569;28;20061;-76
2022/02/10 19:22:31;;;;;;;33.35;10.52;;;;;;;5.46;79.57;95992.16;4989462;28;20053;-76
2022/02/10 19:24:56;;;;;;;50.50;15.32;;;;;;;5.59;80.69;95993.78;5009329;28;20042;-77
2022/02/10 19:27:22;;;;;;;24.35;9.90;;;;;;;5.51;80.11;95994.09;4989682;28;20073;-76
2022/02/10 19:29:54;;;;;;;33.95;13.05;;;;;;;5.41;81.37;96004.28;4988493;28;20535;-77
2022/02/10 19:32:20;;;;;;;31.38;12.75;;;;;;;5.28;80.81;95990.41;4990192;28;20073;-76
2022/02/10 19:34:47;;;;;;;26.70;13.55;;;;;;;5.23;81.30;96002.53;4991768;28;20038;-76
2022/02/10 19:37:15;;;;;;;31.30;13.82;;;;;;;5.01;81.46;96011.69;4998892;28;20101;-76
2022/02/10 19:39:43;;;;;;;30.23;14.82;;;;;;;4.77;83.96;96009.97;4989255;28;20066;-76
2022/02/10 19:42:09;;;;;;;25.73;14.02;;;;;;;4.40;84.75;96015.22;4990172;28;20042;-77
2022/02/10 19:44:37;;;;;;;28.73;13.57;;;;;;;4.52;85.30;96016.06;4989162;28;20113;-76
2022/02/10 19:47:03;;;;;;;23.88;12.90;;;;;;;4.84;83.51;96015.88;4972129;28;20050;-75
2022/02/10 19:49:31;;;;;;;22.35;10.45;;;;;;;4.89;84.22;96010.81;4991436;28;20089;-78
2022/02/10 19:51:56;;;;;;;24.20;10.25;;;;;;;4.88;84.04;96026.69;4996448;28;20038;-75
2022/02/10 19:54:28;;;;;;;18.02;8.20;;;;;;;4.86;84.16;96024.31;4993835;28;20084;-74
2022/02/10 19:56:56;;;;;;;19.73;8.82;;;;;;;4.90;84.51;96028.06;4997185;28;20046;-74
2022/02/10 19:59:25;;;;;;;23.58;9.18;;;;;;;4.72;84.53;96022.88;5018449;28;20141;-77
2022/02/10 20:01:52;;;;;;;26.23;10.23;;;;;;;4.45;85.75;96028.38;4993869;28;20496;-75
2022/02/10 20:04:20;;;;;;;19.88;8.80;;;;;;;4.47;86.22;96015.94;4990067;28;20047;-75
2022/02/10 20:06:46;;;;;;;18.70;8.05;;;;;;;4.61;84.78;96025.22;4981994;28;20039;-75
2022/02/10 20:09:13;;;;;;;18.77;8.55;;;;;;;4.47;85.17;96032.38;4994088;28;20042;-75
2022/02/10 20:11:39;;;;;;;19.23;8.23;;;;;;;4.39;86.49;96037.06;4992987;28;20416;-74
2022/02/10 20:14:05;;;;;;;17.85;8.65;;;;;;;4.40;86.38;96038.69;4994449;28;20050;-74
2022/02/10 20:16:30;;;;;;;19.17;8.38;;;;;;;4.29;86.15;96040.97;4978228;28;20050;-75
2022/02/10 20:18:56;;;;;;;19.45;8.60;;;;;;;4.22;87.09;96045.44;4994234;28;20472;-76
2022/02/10 20:21:21;;;;;;;23.10;8.65;;;;;;;4.18;87.12;96041.69;4993892;28;20102;-76
2022/02/10 20:23:47;;;;;;;17.25;8.52;;;;;;;4.37;87.95;96041.69;4998524;28;20046;-76
2022/02/10 20:26:14;;;;;;;20.60;8.13;;;;;;;4.69;86.12;96035.31;5012999;28;20050;-76
2022/02/10 20:28:41;;;;;;;17.80;8.23;;;;;;;4.80;85.75;96030.41;4996063;28;20054;-76
2022/02/10 20:31:08;;;;;;;18.90;8.65;;;;;;;4.55;86.34;96031.28;5010667;28;21899;-76
2022/02/10 20:33:35;;;;;;;17.25;8.50;;;;;;;4.78;86.80;96029.81;4992686;28;20048;-76
2022/02/10 20:36:03;;;;;;;17.90;7.90;;;;;;;4.85;84.98;96027.91;4992748;28;20035;-76
2022/02/10 20:38:30;;;;;;;18.20;8.13;;;;;;;4.86;84.99;96029.53;4994193;28;20598;-76
2022/02/10 20:41:03;;;;;;;17.27;7.97;;;;;;;4.83;85.04;96035.19;4992893;28;20129;-76
2022/02/10 20:43:29;;;;;;;18.67;8.18;;;;;;;4.72;85.23;96038.53;4992987;28;20044;-76
2022/02/10 20:45:59;;;;;;;17.60;8.27;;;;;;;4.49;86.54;96042.56;5000766;28;20042;-75
2022/02/10 20:48:28;;;;;;;16.85;7.90;;;;;;;4.40;86.61;96036.06;4993994;28;20050;-76
2022/02/10 20:50:56;;;;;;;19.15;8.30;;;;;;;4.52;86.67;96034.31;4993295;28;20034;-76
2022/02/10 20:53:27;;;;;;;18.10;8.02;;;;;;;4.44;86.63;96038.03;5001581;28;20069;-76
2022/02/10 20:56:00;;;;;;;17.90;7.97;;;;;;;4.10;88.21;96028.94;4988245;28;20124;-77
2022/02/10 20:58:29;;;;;;;21.20;8.98;;;;;;;3.98;89.65;96034.84;4974419;28;20050;-77
2022/02/10 21:00:59;;;;;;;17.77;7.97;;;;;;;4.23;88.91;96026.19;4991299;28;20066;-76
2022/02/10 21:03:28;;;;;;;21.83;8.40;;;;;;;4.37;88.06;96020.84;4993104;28;20034;-76
2022/02/10 21:08:47;;;;;;;18.50;8.45;;;;;;;4.65;86.81;96023.72;5007997;28;20054;-76
2022/02/10 21:11:15;;;;;;;30.92;8.73;;;;;;;4.31;87.52;96018.09;4997987;28;20065;-76
2022/02/10 21:13:41;;;;;;;23.88;9.50;;;;;;;4.48;86.59;96013.13;5020148;28;20037;-77
2022/02/10 21:16:06;;;;;;;21.70;9.00;;;;;;;4.44;86.79;96011.13;4993576;28;20516;-75
2022/02/10 21:18:34;;;;;;;29.15;8.35;;;;;;;4.29;87.99;96004.47;4992604;28;20108;-75
2022/02/10 21:21:04;;;;;;;22.17;8.63;;;;;;;3.86;89.06;96002.72;4990512;28;20096;-74
2022/02/10 21:25:57;;;;;;;25.30;8.88;;;;;;;4.03;88.39;96004.78;4990785;28;20046;-76
2022/02/10 21:28:29;;;;;;;23.40;8.63;;;;;;;4.16;88.43;96005.41;4984679;28;20042;-76
2022/02/10 21:31:00;;;;;;;22.73;7.53;;;;;;;4.20;87.71;96005.00;4996880;28;20096;-76
2022/02/10 21:39:20;;;;;;;18.70;7.90;;;;;;;4.12;87.66;95995.66;4981904;28;20054;-75
2022/02/10 21:59:59;;;;;;;17.90;7.50;;;;;;;3.51;89.49;95992.78;4986422;28;20053;-76
2022/02/10 22:06:06;;;;;;;21.50;7.88;;;;;;;3.66;88.32;95983.88;4995640;28;20042;-76
2022/02/10 22:18:45;;;;;;;19.30;8.85;;;;;;;3.21;90.14;95977.81;4986717;28;20049;-75
2022/02/10 22:21:17;;;;;;;23.88;9.63;;;;;;;3.39;89.83;95978.88;4988045;28;20039;-75
2022/02/10 22:23:46;;;;;;;23.20;9.15;;;;;;;3.28;90.46;95968.16;4994974;28;20042;-75
2022/02/10 22:26:19;;;;;;;21.60;8.55;;;;;;;3.49;89.22;95968.78;5018812;28;20139;-75
2022/02/10 22:29:01;;;;;;;13.90;7.53;;;;;;;3.40;88.92;95964.84;4991025;28;20046;-75
2022/02/10 22:36:22;;;;;;;16.92;7.30;;;;;;;3.34;89.97;95960.50;4989984;28;20073;-75
2022/02/10 22:38:52;;;;;;;20.65;7.28;;;;;;;3.26;89.51;95964.16;4990572;28;20058;-75
2022/02/10 22:41:18;;;;;;;20.35;7.53;;;;;;;3.40;89.37;95954.44;4990650;28;20515;-75
2022/02/10 22:43:47;;;;;;;16.48;7.50;;;;;;;3.45;89.58;95952.81;4989211;28;20034;-75
2022/02/10 22:46:14;;;;;;;15.82;7.00;;;;;;;3.44;89.66;95955.63;4998026;28;20512;-75
2022/02/10 22:48:43;;;;;;;14.63;6.72;;;;;;;3.42;89.54;95957.63;4997241;28;20045;-75
2022/02/10 22:51:09;;;;;;;18.00;6.97;;;;;;;3.22;91.04;95961.19;4999986;28;20568;-76
2022/02/10 22:53:35;;;;;;;14.68;6.50;;;;;;;3.49;89.64;95947.97;4988971;28;20038;-75
2022/02/10 22:56:00;;;;;;;19.63;6.82;;;;;;;3.55;88.78;95947.13;4989367;28;20512;-75
2022/02/10 22:58:28;;;;;;;15.40;7.30;;;;;;;3.44;90.36;95950.41;4990187;28;20050;-75
2022/02/10 23:00:54;;;;;;;20.02;6.88;;;;;;;3.61;89.65;95945.47;4989341;28;20038;-76
2022/02/10 23:03:23;;;;;;;17.58;6.90;;;;;;;3.72;89.00;95946.56;4988610;28;20038;-75
2022/02/10 23:05:49;;;;;;;16.77;6.65;;;;;;;3.74;88.66;95936.75;4997995;28;20560;-75
2022/02/10 23:08:16;;;;;;;16.92;6.60;;;;;;;3.77;89.01;95936.31;4991711;28;20057;-75
2022/02/10 23:10:49;;;;;;;15.52;6.60;;;;;;;3.80;88.78;95928.06;4989701;28;20120;-76
2022/02/10 23:13:20;;;;;;;18.52;6.85;;;;;;;3.90;88.29;95928.38;4979446;28;20116;-76
2022/02/10 23:15:45;;;;;;;14.30;6.82;;;;;;;3.90;88.15;95928.38;4991958;28;20098;-75
2022/02/10 23:18:14;;;;;;;20.48;7.05;;;;;;;3.98;87.96;95920.28;4981702;28;20046;-75
2022/02/10 23:20:41;;;;;;;15.52;7.38;;;;;;;4.02;87.72;95918.00;4988633;28;20093;-75
2022/02/10 23:23:09;;;;;;;21.52;7.50;;;;;;;4.06;87.66;95918.38;4989142;28;20073;-76
2022/02/10 23:25:39;;;;;;;16.10;7.20;;;;;;;4.13;87.26;95922.50;4997108;28;20555;-75
2022/02/10 23:28:07;;;;;;;16.17;7.28;;;;;;;4.16;86.61;95911.63;4990224;28;20394;-76
2022/02/10 23:30:34;;;;;;;20.02;7.82;;;;;;;4.20;87.22;95909.41;5008339;28;20046;-76
2022/02/10 23:33:08;;;;;;;16.77;7.07;;;;;;;4.15;87.19;95904.03;5002276;28;20077;-75
2022/02/10 23:38:02;;;;;;;16.70;7.00;;;;;;;4.32;86.18;95907.66;4989246;28;20104;-75
2022/02/10 23:40:36;;;;;;;17.75;7.00;;;;;;;4.26;86.31;95902.53;4990481;28;20416;-76
2022/02/10 23:43:03;;;;;;;19.52;6.97;;;;;;;4.31;86.15;95898.25;5009848;28;20489;-75
2022/02/10 23:45:28;;;;;;;21.35;6.80;;;;;;;4.34;86.46;95887.38;4988506;28;20073;-75
2022/02/10 23:47:54;;;;;;;16.02;6.70;;;;;;;4.32;86.18;95883.41;4989190;28;20046;-75
2022/02/10 23:50:26;;;;;;;16.27;7.00;;;;;;;4.19;87.20;95884.38;4980746;28;20038;-75
2022/02/10 23:52:54;;;;;;;15.70;6.60;;;;;;;4.40;86.11;95884.94;4991349;28;20045;-75
2022/02/10 23:55:28;;;;;;;16.67;7.07;;;;;;;4.40;86.17;95879.72;5001121;28;20046;-76
